Terminal Aerodrome Forecast
Issued by NWS

Home | Current Version | Previous Version | Graphics & Text | Print | Product List | Glossary On
Versions: 1 2 3 4 5 6 7 8 9 10 11 12 13 14 15 16 17 18 19 20 21 22 23 24
463
FTUS43 KGRB 171722
TAFMTW
TAF
KMTW 171722Z 1718/1818 34008KT 2SM BR OVC003
      TEMPO 1718/1722 4SM -DZ BR OVC006
     FM172200 33005KT 3SM BR OVC003
     FM180100 32005KT 4SM BR OVC007
     FM180500 30005KT 5SM BR SCT007 OVC015
      TEMPO 1805/1809 2SM BR SCT002 OVC007
     FM180900 29005KT 3SM BR SCT015 OVC025
     FM181400 24010KT 6SM BR BKN035 OVC070=

USA.gov is the U.S. government's official web portal to all federal, state and local government web resources and services.